sensor_id;sensor_type;location;lat;lon;timestamp;pressure;altitude;pressure_sealevel;temperature
42197;BMP280;27866;48.146;17.098;2023-04-01T00:02:26;98223.94;;;12.74
42197;BMP280;27866;48.146;17.098;2023-04-01T00:06:37;98224.03;;;12.65
42197;BMP280;27866;48.146;17.098;2023-04-01T00:10:48;98230.91;;;12.74
42197;BMP280;27866;48.146;17.098;2023-04-01T00:15:00;98236.22;;;12.97
42197;BMP280;27866;48.146;17.098;2023-04-01T00:19:13;98232.94;;;13.19
42197;BMP280;27866;48.146;17.098;2023-04-01T00:23:25;98231.59;;;13.48
42197;BMP280;27866;48.146;17.098;2023-04-01T00:27:37;98231.47;;;13.65
42197;BMP280;27866;48.146;17.098;2023-04-01T00:31:48;98224.22;;;13.84
42197;BMP280;27866;48.146;17.098;2023-04-01T00:36:12;98223.28;;;14.16
42197;BMP280;27866;48.146;17.098;2023-04-01T00:40:28;98226.22;;;14.20
42197;BMP280;27866;48.146;17.098;2023-04-01T00:44:42;98220.66;;;14.08
42197;BMP280;27866;48.146;17.098;2023-04-01T00:48:55;98232.53;;;14.03
42197;BMP280;27866;48.146;17.098;2023-04-01T00:53:07;98228.47;;;14.00
42197;BMP280;27866;48.146;17.098;2023-04-01T00:57:34;98229.94;;;14.03
42197;BMP280;27866;48.146;17.098;2023-04-01T01:01:47;98236.13;;;14.09
42197;BMP280;27866;48.146;17.098;2023-04-01T01:10:26;98235.31;;;14.24
42197;BMP280;27866;48.146;17.098;2023-04-01T01:15:00;98226.19;;;14.36
42197;BMP280;27866;48.146;17.098;2023-04-01T01:33:49;98227.84;;;14.45
42197;BMP280;27866;48.146;17.098;2023-04-01T01:38:07;98216.44;;;14.46
42197;BMP280;27866;48.146;17.098;2023-04-01T01:42:21;98215.78;;;14.51
42197;BMP280;27866;48.146;17.098;2023-04-01T01:46:34;98212.84;;;14.62
42197;BMP280;27866;48.146;17.098;2023-04-01T01:50:48;98212.50;;;14.65
42197;BMP280;27866;48.146;17.098;2023-04-01T01:55:00;98198.81;;;14.63
42197;BMP280;27866;48.146;17.098;2023-04-01T01:59:23;98204.19;;;14.69
42197;BMP280;27866;48.146;17.098;2023-04-01T02:03:37;98199.94;;;14.68
42197;BMP280;27866;48.146;17.098;2023-04-01T02:08:16;98181.41;;;14.71
42197;BMP280;27866;48.146;17.098;2023-04-01T02:12:29;98179.28;;;14.67
42197;BMP280;27866;48.146;17.098;2023-04-01T02:16:58;98173.91;;;14.61
42197;BMP280;27866;48.146;17.098;2023-04-01T02:21:12;98166.28;;;14.59
42197;BMP280;27866;48.146;17.098;2023-04-01T02:25:30;98167.56;;;14.63
42197;BMP280;27866;48.146;17.098;2023-04-01T02:29:44;98162.22;;;14.49
42197;BMP280;27866;48.146;17.098;2023-04-01T02:33:56;98173.16;;;14.14
42197;BMP280;27866;48.146;17.098;2023-04-01T02:38:08;98171.19;;;13.85
42197;BMP280;27866;48.146;17.098;2023-04-01T02:42:19;98174.44;;;13.71
42197;BMP280;27866;48.146;17.098;2023-04-01T02:46:31;98179.09;;;13.45
42197;BMP280;27866;48.146;17.098;2023-04-01T02:50:42;98185.06;;;13.30
42197;BMP280;27866;48.146;17.098;2023-04-01T02:54:53;98188.72;;;13.12
42197;BMP280;27866;48.146;17.098;2023-04-01T02:59:05;98197.59;;;12.94
42197;BMP280;27866;48.146;17.098;2023-04-01T03:03:16;98203.97;;;12.75
42197;BMP280;27866;48.146;17.098;2023-04-01T03:07:27;98192.50;;;12.60
42197;BMP280;27866;48.146;17.098;2023-04-01T03:11:39;98208.81;;;12.70
42197;BMP280;27866;48.146;17.098;2023-04-01T03:15:52;98215.13;;;12.92
42197;BMP280;27866;48.146;17.098;2023-04-01T03:20:05;98214.78;;;13.27
42197;BMP280;27866;48.146;17.098;2023-04-01T03:24:16;98224.47;;;13.58
42197;BMP280;27866;48.146;17.098;2023-04-01T03:28:27;98228.75;;;13.74
42197;BMP280;27866;48.146;17.098;2023-04-01T03:32:39;98225.31;;;13.74
42197;BMP280;27866;48.146;17.098;2023-04-01T03:36:51;98221.69;;;13.59
42197;BMP280;27866;48.146;17.098;2023-04-01T03:41:03;98216.94;;;13.47
42197;BMP280;27866;48.146;17.098;2023-04-01T03:45:16;98222.13;;;13.47
42197;BMP280;27866;48.146;17.098;2023-04-01T03:49:28;98216.97;;;13.62
42197;BMP280;27866;48.146;17.098;2023-04-01T03:53:39;98205.69;;;13.79
42197;BMP280;27866;48.146;17.098;2023-04-01T03:57:51;98217.09;;;13.93
42197;BMP280;27866;48.146;17.098;2023-04-01T04:02:03;98211.72;;;14.03
42197;BMP280;27866;48.146;17.098;2023-04-01T04:06:17;98199.84;;;14.08
42197;BMP280;27866;48.146;17.098;2023-04-01T04:10:28;98203.56;;;14.05
42197;BMP280;27866;48.146;17.098;2023-04-01T04:14:40;98202.78;;;14.05
42197;BMP280;27866;48.146;17.098;2023-04-01T04:18:51;98204.41;;;14.21
42197;BMP280;27866;48.146;17.098;2023-04-01T04:23:02;98200.19;;;14.20
42197;BMP280;27866;48.146;17.098;2023-04-01T04:27:14;98202.13;;;14.11
42197;BMP280;27866;48.146;17.098;2023-04-01T04:31:38;98191.53;;;13.89
42197;BMP280;27866;48.146;17.098;2023-04-01T04:35:49;98196.72;;;13.74
42197;BMP280;27866;48.146;17.098;2023-04-01T04:40:01;98193.31;;;13.73
42197;BMP280;27866;48.146;17.098;2023-04-01T04:44:14;98193.97;;;13.75
42197;BMP280;27866;48.146;17.098;2023-04-01T04:48:27;98200.13;;;13.74
42197;BMP280;27866;48.146;17.098;2023-04-01T04:52:38;98208.28;;;13.79
42197;BMP280;27866;48.146;17.098;2023-04-01T04:56:52;98215.31;;;13.94
42197;BMP280;27866;48.146;17.098;2023-04-01T05:01:10;98226.69;;;14.08
42197;BMP280;27866;48.146;17.098;2023-04-01T05:05:23;98231.25;;;14.14
42197;BMP280;27866;48.146;17.098;2023-04-01T05:09:34;98232.72;;;14.09
42197;BMP280;27866;48.146;17.098;2023-04-01T05:13:47;98238.56;;;14.03
42197;BMP280;27866;48.146;17.098;2023-04-01T05:17:58;98245.41;;;14.20
42197;BMP280;27866;48.146;17.098;2023-04-01T05:22:09;98246.22;;;14.35
42197;BMP280;27866;48.146;17.098;2023-04-01T05:26:22;98237.09;;;14.47
42197;BMP280;27866;48.146;17.098;2023-04-01T05:30:33;98236.44;;;14.61
42197;BMP280;27866;48.146;17.098;2023-04-01T05:34:58;98247.66;;;14.77
42197;BMP280;27866;48.146;17.098;2023-04-01T05:39:10;98247.03;;;14.82
42197;BMP280;27866;48.146;17.098;2023-04-01T05:43:21;98258.56;;;14.64
42197;BMP280;27866;48.146;17.098;2023-04-01T05:47:34;98247.53;;;14.39
42197;BMP280;27866;48.146;17.098;2023-04-01T05:51:46;98249.97;;;14.18
42197;BMP280;27866;48.146;17.098;2023-04-01T05:56:01;98241.19;;;14.11
42197;BMP280;27866;48.146;17.098;2023-04-01T06:00:14;98244.75;;;14.33
42197;BMP280;27866;48.146;17.098;2023-04-01T06:04:37;98252.88;;;14.92
42197;BMP280;27866;48.146;17.098;2023-04-01T06:08:49;98250.97;;;18.58
42197;BMP280;27866;48.146;17.098;2023-04-01T06:13:10;98250.13;;;22.15
42197;BMP280;27866;48.146;17.098;2023-04-01T06:22:27;98245.28;;;23.84
42197;BMP280;27866;48.146;17.098;2023-04-01T06:35:45;98229.06;;;28.91
42197;BMP280;27866;48.146;17.098;2023-04-01T06:51:12;98219.06;;;25.08
42197;BMP280;27866;48.146;17.098;2023-04-01T06:55:40;98212.72;;;23.08
42197;BMP280;27866;48.146;17.098;2023-04-01T07:00:35;98223.25;;;23.55
42197;BMP280;27866;48.146;17.098;2023-04-01T07:04:51;98218.34;;;23.76
42197;BMP280;27866;48.146;17.098;2023-04-01T07:09:16;98220.81;;;21.32
42197;BMP280;27866;48.146;17.098;2023-04-01T07:14:35;98236.59;;;24.12
42197;BMP280;27866;48.146;17.098;2023-04-01T07:23:46;98205.25;;;30.59
42197;BMP280;27866;48.146;17.098;2023-04-01T07:28:18;98217.66;;;25.17
42197;BMP280;27866;48.146;17.098;2023-04-01T07:42:16;98244.19;;;19.23
42197;BMP280;27866;48.146;17.098;2023-04-01T07:51:24;98252.34;;;18.40
42197;BMP280;27866;48.146;17.098;2023-04-01T07:56:15;98250.63;;;18.67
42197;BMP280;27866;48.146;17.098;2023-04-01T08:00:41;98250.75;;;18.39
42197;BMP280;27866;48.146;17.098;2023-04-01T08:05:27;98255.19;;;18.04
42197;BMP280;27866;48.146;17.098;2023-04-01T08:10:02;98260.50;;;17.76
42197;BMP280;27866;48.146;17.098;2023-04-01T08:24:38;98256.63;;;18.61
42197;BMP280;27866;48.146;17.098;2023-04-01T08:33:29;98247.66;;;18.70
42197;BMP280;27866;48.146;17.098;2023-04-01T08:37:48;98264.56;;;19.47
42197;BMP280;27866;48.146;17.098;2023-04-01T08:56:58;98265.66;;;22.65
42197;BMP280;27866;48.146;17.098;2023-04-01T09:10:53;98224.25;;;29.98
42197;BMP280;27866;48.146;17.098;2023-04-01T09:24:43;98234.69;;;23.67
42197;BMP280;27866;48.146;17.098;2023-04-01T09:29:44;98268.31;;;22.65
42197;BMP280;27866;48.146;17.098;2023-04-01T09:34:30;98237.25;;;25.71
42197;BMP280;27866;48.146;17.098;2023-04-01T09:38:57;98241.38;;;23.87
42197;BMP280;27866;48.146;17.098;2023-04-01T09:43:29;98244.16;;;22.32
42197;BMP280;27866;48.146;17.098;2023-04-01T09:48:36;98253.53;;;21.67
42197;BMP280;27866;48.146;17.098;2023-04-01T09:53:46;98261.78;;;21.21
42197;BMP280;27866;48.146;17.098;2023-04-01T10:22:06;98255.03;;;20.50
42197;BMP280;27866;48.146;17.098;2023-04-01T10:32:20;98258.53;;;21.19
42197;BMP280;27866;48.146;17.098;2023-04-01T10:36:53;98256.50;;;21.15
42197;BMP280;27866;48.146;17.098;2023-04-01T11:20:35;98253.72;;;25.62
42197;BMP280;27866;48.146;17.098;2023-04-01T11:39:11;98249.34;;;22.75
42197;BMP280;27866;48.146;17.098;2023-04-01T11:54:39;98265.53;;;22.84
42197;BMP280;27866;48.146;17.098;2023-04-01T11:59:13;98257.75;;;25.09
42197;BMP280;27866;48.146;17.098;2023-04-01T12:27:48;98238.22;;;38.07
42197;BMP280;27866;48.146;17.098;2023-04-01T12:37:17;98242.47;;;28.49
42197;BMP280;27866;48.146;17.098;2023-04-01T12:42:17;98260.97;;;26.38
42197;BMP280;27866;48.146;17.098;2023-04-01T12:51:53;98241.28;;;24.39
42197;BMP280;27866;48.146;17.098;2023-04-01T13:11:02;98246.97;;;23.21
42197;BMP280;27866;48.146;17.098;2023-04-01T13:25:24;98248.78;;;24.13
42197;BMP280;27866;48.146;17.098;2023-04-01T13:57:42;98204.66;;;31.98
42197;BMP280;27866;48.146;17.098;2023-04-01T14:11:20;98215.47;;;25.25
42197;BMP280;27866;48.146;17.098;2023-04-01T14:29:40;98215.03;;;23.63
42197;BMP280;27866;48.146;17.098;2023-04-01T14:57:17;98201.25;;;24.86
42197;BMP280;27866;48.146;17.098;2023-04-01T15:02:08;98202.19;;;27.05
42197;BMP280;27866;48.146;17.098;2023-04-01T15:06:42;98199.38;;;26.25
42197;BMP280;27866;48.146;17.098;2023-04-01T15:11:48;98201.63;;;24.10
42197;BMP280;27866;48.146;17.098;2023-04-01T15:20:49;98201.25;;;25.64
42197;BMP280;27866;48.146;17.098;2023-04-01T15:30:23;98196.91;;;26.78
42197;BMP280;27866;48.146;17.098;2023-04-01T15:34:59;98216.09;;;23.73
42197;BMP280;27866;48.146;17.098;2023-04-01T15:39:42;98224.88;;;21.95
42197;BMP280;27866;48.146;17.098;2023-04-01T15:43:56;98216.59;;;21.18
42197;BMP280;27866;48.146;17.098;2023-04-01T16:07:03;98229.00;;;19.90
42197;BMP280;27866;48.146;17.098;2023-04-01T16:30:48;98250.47;;;19.28
42197;BMP280;27866;48.146;17.098;2023-04-01T16:40:22;98253.41;;;19.13
42197;BMP280;27866;48.146;17.098;2023-04-01T16:44:55;98248.34;;;18.85
42197;BMP280;27866;48.146;17.098;2023-04-01T16:58:01;98269.22;;;18.31
42197;BMP280;27866;48.146;17.098;2023-04-01T17:02:18;98264.94;;;18.10
42197;BMP280;27866;48.146;17.098;2023-04-01T17:06:44;98281.25;;;17.92
42197;BMP280;27866;48.146;17.098;2023-04-01T17:20:30;98317.38;;;17.96
42197;BMP280;27866;48.146;17.098;2023-04-01T17:34:44;98343.22;;;17.85
42197;BMP280;27866;48.146;17.098;2023-04-01T17:57:45;98368.34;;;16.94
42197;BMP280;27866;48.146;17.098;2023-04-01T18:25:39;98412.75;;;17.02
42197;BMP280;27866;48.146;17.098;2023-04-01T18:30:17;98425.50;;;16.97
42197;BMP280;27866;48.146;17.098;2023-04-01T18:39:49;98442.31;;;16.73
42197;BMP280;27866;48.146;17.098;2023-04-01T18:44:52;98456.09;;;16.59
42197;BMP280;27866;48.146;17.098;2023-04-01T18:49:56;98451.97;;;16.43
42197;BMP280;27866;48.146;17.098;2023-04-01T19:08:29;98472.78;;;16.21
42197;BMP280;27866;48.146;17.098;2023-04-01T19:13:01;98484.91;;;16.14
42197;BMP280;27866;48.146;17.098;2023-04-01T19:41:32;98527.06;;;15.50
42197;BMP280;27866;48.146;17.098;2023-04-01T19:50:57;98539.44;;;15.32
42197;BMP280;27866;48.146;17.098;2023-04-01T19:59:57;98563.72;;;15.40
42197;BMP280;27866;48.146;17.098;2023-04-01T20:04:23;98560.66;;;15.45
42197;BMP280;27866;48.146;17.098;2023-04-01T20:18:58;98561.09;;;15.02
42197;BMP280;27866;48.146;17.098;2023-04-01T20:27:29;98570.72;;;14.77
42197;BMP280;27866;48.146;17.098;2023-04-01T20:37:00;98577.13;;;14.49
42197;BMP280;27866;48.146;17.098;2023-04-01T20:46:27;98576.16;;;14.18
42197;BMP280;27866;48.146;17.098;2023-04-01T20:50:50;98591.09;;;14.16
42197;BMP280;27866;48.146;17.098;2023-04-01T21:00:14;98601.75;;;14.05
42197;BMP280;27866;48.146;17.098;2023-04-01T21:19:03;98608.09;;;14.28
42197;BMP280;27866;48.146;17.098;2023-04-01T21:23:39;98618.81;;;14.25
42197;BMP280;27866;48.146;17.098;2023-04-01T21:33:07;98629.34;;;14.16
42197;BMP280;27866;48.146;17.098;2023-04-01T21:37:55;98625.84;;;14.07
42197;BMP280;27866;48.146;17.098;2023-04-01T21:42:38;98629.53;;;13.97
42197;BMP280;27866;48.146;17.098;2023-04-01T22:01:49;98633.72;;;13.74
42197;BMP280;27866;48.146;17.098;2023-04-01T22:11:08;98639.06;;;13.89
42197;BMP280;27866;48.146;17.098;2023-04-01T22:16:00;98634.81;;;14.05
42197;BMP280;27866;48.146;17.098;2023-04-01T22:20:45;98642.41;;;14.23
42197;BMP280;27866;48.146;17.098;2023-04-01T22:25:12;98641.47;;;14.32
42197;BMP280;27866;48.146;17.098;2023-04-01T22:29:40;98635.97;;;14.35
42197;BMP280;27866;48.146;17.098;2023-04-01T22:34:24;98639.69;;;14.33
42197;BMP280;27866;48.146;17.098;2023-04-01T22:48:18;98651.16;;;14.47
42197;BMP280;27866;48.146;17.098;2023-04-01T22:52:40;98650.44;;;14.54
42197;BMP280;27866;48.146;17.098;2023-04-01T23:01:25;98648.78;;;14.53
42197;BMP280;27866;48.146;17.098;2023-04-01T23:05:52;98655.75;;;14.53
42197;BMP280;27866;48.146;17.098;2023-04-01T23:10:10;98653.03;;;14.54
42197;BMP280;27866;48.146;17.098;2023-04-01T23:28:39;98659.25;;;14.36
42197;BMP280;27866;48.146;17.098;2023-04-01T23:32:51;98660.38;;;14.34
42197;BMP280;27866;48.146;17.098;2023-04-01T23:37:11;98669.50;;;14.38
42197;BMP280;27866;48.146;17.098;2023-04-01T23:41:30;98670.38;;;14.46
42197;BMP280;27866;48.146;17.098;2023-04-01T23:45:42;98667.63;;;14.48
42197;BMP280;27866;48.146;17.098;2023-04-01T23:49:58;98669.56;;;14.46
42197;BMP280;27866;48.146;17.098;2023-04-01T23:54:41;98669.56;;;14.46
42197;BMP280;27866;48.146;17.098;2023-04-01T23:58:53;98671.00;;;14.40
